Time;durP1;ratioP1;P1;durP2;ratioP2;P2;SDS_P1;SDS_P2;PMS_P1;PMS_P2;Temp;Humidity;BMP_temperature;BMP_pressure;BME280_temperature;BME280_humidity;BME280_pressure;Samples;Min_cycle;Max_cycle;Signal;HPM_P1;HPM_P2
2022/07/24 00:01:08;;;;;;;16.77;15.33;;;21.10;99.90;;;;;;5073353;28;20274;-52
2022/07/24 00:03:35;;;;;;;16.37;15.17;;;21.10;99.90;;;;;;5073730;28;20220;-53
2022/07/24 00:06:02;;;;;;;17.07;15.77;;;21.00;99.90;;;;;;5072668;28;20205;-52
2022/07/24 00:08:31;;;;;;;18.73;17.13;;;21.00;99.90;;;;;;5073580;28;20193;-53
2022/07/24 00:10:58;;;;;;;18.27;16.67;;;21.10;99.90;;;;;;5073877;28;20266;-53
2022/07/24 00:13:30;;;;;;;17.10;15.60;;;21.10;99.90;;;;;;5069608;28;20247;-53
2022/07/24 00:15:57;;;;;;;15.67;14.37;;;21.00;99.90;;;;;;5073672;28;20555;-53
2022/07/24 00:18:27;;;;;;;15.93;14.73;;;21.00;99.90;;;;;;5073675;28;20258;-53
2022/07/24 00:20:54;;;;;;;15.23;14.10;;;21.00;99.90;;;;;;5070726;28;20666;-53
2022/07/24 00:23:22;;;;;;;15.93;14.60;;;20.90;99.90;;;;;;5072686;28;20228;-53
2022/07/24 00:25:49;;;;;;;15.33;14.20;;;20.90;99.90;;;;;;5073432;28;20600;-53
2022/07/24 00:28:16;;;;;;;15.63;14.43;;;20.90;99.90;;;;;;5073598;28;20228;-53
2022/07/24 00:30:45;;;;;;;17.80;14.73;;;20.90;99.90;;;;;;5073348;28;20205;-52
2022/07/24 00:33:12;;;;;;;15.13;13.97;;;20.90;99.90;;;;;;5071307;28;20693;-53
2022/07/24 00:35:39;;;;;;;17.33;15.73;;;20.90;99.90;;;;;;5073231;28;20212;-53
2022/07/24 00:38:07;;;;;;;14.27;13.17;;;21.00;99.90;;;;;;5073248;28;20205;-53
2022/07/24 00:40:34;;;;;;;14.87;13.77;;;21.00;99.90;;;;;;5073390;28;20583;-53
2022/07/24 00:43:01;;;;;;;14.20;13.07;;;21.00;99.90;;;;;;5071621;28;20724;-53
2022/07/24 00:45:28;;;;;;;15.50;14.37;;;21.00;99.90;;;;;;5071625;28;20225;-53
2022/07/24 00:47:56;;;;;;;15.17;13.90;;;21.00;99.90;;;;;;5072967;28;20747;-53
2022/07/24 00:50:23;;;;;;;13.90;12.90;;;21.00;99.90;;;;;;5072056;28;20201;-53
2022/07/24 00:52:50;;;;;;;16.30;14.53;;;21.00;99.90;;;;;;5072221;28;20279;-53
2022/07/24 00:55:18;;;;;;;15.47;14.20;;;21.00;99.90;;;;;;5072979;28;20205;-53
2022/07/24 00:57:48;;;;;;;13.90;12.97;;;21.00;99.90;;;;;;5071743;28;20197;-53
2022/07/24 01:00:17;;;;;;;14.23;13.03;;;21.00;99.90;;;;;;5073121;28;20573;-52
2022/07/24 01:02:44;;;;;;;16.13;14.53;;;20.90;99.90;;;;;;5071312;28;20228;-53
2022/07/24 01:05:13;;;;;;;13.57;12.47;;;20.90;99.90;;;;;;5068935;28;20584;-53
2022/07/24 01:07:41;;;;;;;15.37;14.03;;;20.80;99.90;;;;;;5071856;28;20208;-53
2022/07/24 01:10:08;;;;;;;14.63;13.33;;;20.70;99.90;;;;;;5071998;28;20201;-53
2022/07/24 01:12:38;;;;;;;13.67;12.73;;;20.70;99.90;;;;;;5071922;28;20275;-53
2022/07/24 01:15:09;;;;;;;14.03;13.03;;;20.70;99.90;;;;;;5072748;28;20220;-53
2022/07/24 01:17:38;;;;;;;15.87;14.67;;;20.60;99.90;;;;;;5072654;28;20201;-52
2022/07/24 01:20:06;;;;;;;16.20;14.90;;;20.70;99.90;;;;;;5072430;28;20198;-52
2022/07/24 01:22:34;;;;;;;15.03;13.93;;;20.70;99.90;;;;;;5067628;28;20217;-53
2022/07/24 01:25:01;;;;;;;14.97;13.67;;;20.70;99.90;;;;;;5070415;28;20209;-53
2022/07/24 01:27:28;;;;;;;15.93;14.53;;;20.70;99.90;;;;;;5072300;28;20201;-53
2022/07/24 01:29:55;;;;;;;15.87;14.53;;;20.70;99.90;;;;;;5072258;28;20555;-53
2022/07/24 01:32:22;;;;;;;14.53;13.47;;;20.70;99.90;;;;;;5071466;28;20236;-54
2022/07/24 01:34:49;;;;;;;15.23;14.00;;;20.70;99.90;;;;;;5070487;28;20206;-52
2022/07/24 01:37:16;;;;;;;15.17;14.07;;;20.80;99.90;;;;;;5072112;28;20201;-53
2022/07/24 01:39:45;;;;;;;16.27;14.77;;;20.80;99.90;;;;;;5071979;28;20216;-53
2022/07/24 01:42:12;;;;;;;15.53;14.07;;;20.80;99.90;;;;;;5071274;28;20221;-53
2022/07/24 01:44:39;;;;;;;15.83;14.33;;;20.80;99.90;;;;;;5070091;28;20689;-53
2022/07/24 01:47:06;;;;;;;14.90;13.80;;;20.80;99.90;;;;;;5070228;28;20193;-53
2022/07/24 01:49:33;;;;;;;14.60;13.50;;;20.80;99.90;;;;;;5076097;28;20201;-53
2022/07/24 01:52:00;;;;;;;16.10;14.73;;;20.80;99.90;;;;;;5071235;28;20564;-53
2022/07/24 01:54:27;;;;;;;15.10;14.00;;;20.80;99.90;;;;;;5070718;28;20231;-52
2022/07/24 01:56:55;;;;;;;15.53;14.23;;;20.80;99.90;;;;;;5071590;28;20209;-53
2022/07/24 01:59:22;;;;;;;14.23;13.13;;;20.80;99.90;;;;;;5070156;28;20213;-52
2022/07/24 02:01:49;;;;;;;14.37;13.20;;;20.80;99.90;;;;;;5070639;28;20197;-52
2022/07/24 02:04:16;;;;;;;15.00;13.80;;;20.80;99.90;;;;;;5071759;28;20216;-53
2022/07/24 02:06:43;;;;;;;14.90;13.70;;;20.70;99.90;;;;;;5071659;28;20286;-53
2022/07/24 02:09:10;;;;;;;14.60;13.50;;;20.70;99.90;;;;;;5071646;28;20201;-53
2022/07/24 02:11:37;;;;;;;14.13;12.93;;;20.60;99.90;;;;;;5066570;28;20290;-53
2022/07/24 02:14:06;;;;;;;14.13;13.13;;;20.60;99.90;;;;;;5070437;28;20290;-53
2022/07/24 02:16:33;;;;;;;14.97;13.73;;;20.60;99.90;;;;;;5071289;28;20670;-53
2022/07/24 02:19:00;;;;;;;14.57;13.50;;;20.60;99.90;;;;;;5071506;28;20201;-52
2022/07/24 02:21:28;;;;;;;15.27;13.97;;;20.60;99.90;;;;;;5070720;28;20205;-53
2022/07/24 02:23:55;;;;;;;14.60;13.30;;;20.60;99.90;;;;;;5070281;28;20695;-53
2022/07/24 02:26:22;;;;;;;15.97;14.67;;;20.50;99.90;;;;;;5064605;28;20862;-52
2022/07/24 02:28:49;;;;;;;14.93;13.83;;;20.60;99.90;;;;;;5065870;28;20225;-53
2022/07/24 02:31:17;;;;;;;13.33;12.33;;;20.60;99.90;;;;;;5070427;28;20300;-53
2022/07/24 02:33:44;;;;;;;15.53;14.23;;;20.60;99.90;;;;;;5080779;22;20225;-52
2022/07/24 03:06:31;;;;;;;14.33;13.33;;;20.10;99.90;;;;;;5054521;28;20299;-49
2022/07/24 03:08:58;;;;;;;14.17;13.17;;;20.10;99.90;;;;;;5055647;28;20202;-50
2022/07/24 03:11:25;;;;;;;14.23;13.13;;;20.00;99.90;;;;;;5054926;28;20512;-50
2022/07/24 03:13:52;;;;;;;15.43;14.13;;;20.00;99.90;;;;;;5056430;28;20225;-50
2022/07/24 03:16:19;;;;;;;15.80;14.50;;;20.00;99.90;;;;;;5067895;28;20275;-50
2022/07/24 03:18:48;;;;;;;18.43;16.67;;;19.90;99.90;;;;;;5075293;28;20691;-50
2022/07/24 03:21:15;;;;;;;15.93;14.60;;;19.90;99.90;;;;;;5074429;28;20333;-50
2022/07/24 03:23:44;;;;;;;16.00;14.67;;;19.90;99.90;;;;;;5055355;28;20263;-50
2022/07/24 03:26:11;;;;;;;15.80;14.60;;;19.90;99.90;;;;;;5054899;28;20202;-50
2022/07/24 03:28:37;;;;;;;16.60;15.07;;;19.90;99.90;;;;;;5070234;28;20209;-50
2022/07/24 03:31:05;;;;;;;15.63;14.27;;;19.90;99.90;;;;;;5069143;28;20626;-49
2022/07/24 03:33:34;;;;;;;15.23;13.93;;;19.90;99.90;;;;;;5070989;28;20583;-50
2022/07/24 03:36:01;;;;;;;15.80;14.60;;;19.90;99.90;;;;;;5073862;28;20197;-50
2022/07/24 03:38:33;;;;;;;15.23;13.93;;;19.90;99.90;;;;;;5072703;28;20247;-50
2022/07/24 03:41:01;;;;;;;15.17;14.10;;;19.90;99.90;;;;;;5062530;28;20237;-50
2022/07/24 03:43:31;;;;;;;15.37;13.50;;;20.00;99.90;;;;;;5072359;28;20230;-50
2022/07/24 03:45:58;;;;;;;15.73;14.53;;;20.00;99.90;;;;;;5073059;28;20209;-50
2022/07/24 03:48:30;;;;;;;16.10;14.83;;;20.00;99.90;;;;;;5070639;28;20209;-50
2022/07/24 03:50:58;;;;;;;16.17;14.77;;;19.90;99.90;;;;;;5069849;28;20212;-50
2022/07/24 03:53:28;;;;;;;16.23;14.63;;;19.80;99.90;;;;;;5063118;28;20684;-49
2022/07/24 03:55:55;;;;;;;14.70;13.50;;;19.80;99.90;;;;;;5066496;28;20206;-50
2022/07/24 03:58:26;;;;;;;14.00;12.97;;;19.70;99.90;;;;;;5053269;28;20206;-50
2022/07/24 04:00:53;;;;;;;13.70;12.63;;;19.70;99.90;;;;;;5060693;28;20255;-50
2022/07/24 04:03:20;;;;;;;15.47;14.27;;;19.70;99.90;;;;;;5061198;28;20214;-49
2022/07/24 04:05:47;;;;;;;14.30;13.20;;;19.70;99.90;;;;;;5061646;28;20703;-50
2022/07/24 04:08:14;;;;;;;14.67;13.50;;;19.70;99.90;;;;;;5063381;28;20229;-50
2022/07/24 04:10:41;;;;;;;13.53;12.53;;;19.70;99.90;;;;;;5053697;28;20660;-50
2022/07/24 04:13:08;;;;;;;15.60;14.30;;;19.70;99.90;;;;;;5061384;28;20221;-50
2022/07/24 04:15:36;;;;;;;16.57;15.10;;;19.70;99.90;;;;;;5057014;28;20594;-50
2022/07/24 04:18:03;;;;;;;14.50;13.50;;;19.70;99.90;;;;;;5056532;28;20201;-50
2022/07/24 04:20:30;;;;;;;15.67;14.37;;;19.70;99.90;;;;;;5060309;28;20254;-50
2022/07/24 04:22:57;;;;;;;14.73;13.43;;;19.70;99.90;;;;;;5067583;28;20282;-50
2022/07/24 04:25:24;;;;;;;15.97;14.50;;;19.80;99.90;;;;;;5056263;28;20263;-50
2022/07/24 04:27:51;;;;;;;15.23;14.13;;;19.90;99.90;;;;;;5057412;28;20243;-50
2022/07/24 04:30:18;;;;;;;14.63;13.50;;;20.00;99.90;;;;;;5059410;28;20210;-50
2022/07/24 04:32:47;;;;;;;16.43;15.03;;;20.10;99.90;;;;;;5052432;28;20657;-50
2022/07/24 04:35:13;;;;;;;15.17;14.00;;;20.10;99.90;;;;;;5058731;28;20225;-50
2022/07/24 04:37:40;;;;;;;14.10;12.83;;;20.20;99.90;;;;;;5056329;28;20717;-50
2022/07/24 04:40:09;;;;;;;14.43;13.37;;;20.20;99.90;;;;;;5054814;28;20256;-50
2022/07/24 04:42:36;;;;;;;15.67;14.27;;;20.20;99.90;;;;;;5055945;28;20320;-50
2022/07/24 04:45:03;;;;;;;15.97;14.57;;;20.20;99.90;;;;;;5052754;28;20635;-50
2022/07/24 04:47:30;;;;;;;16.03;14.63;;;20.20;99.90;;;;;;5053661;28;20198;-49
2022/07/24 04:49:59;;;;;;;14.90;13.63;;;20.30;99.90;;;;;;5052649;28;20251;-50
2022/07/24 04:52:26;;;;;;;15.73;14.50;;;20.40;99.90;;;;;;5052015;28;20288;-50
2022/07/24 04:54:53;;;;;;;14.07;13.03;;;20.50;99.90;;;;;;5051326;28;20305;-50
2022/07/24 04:57:20;;;;;;;15.73;14.43;;;20.50;99.90;;;;;;5052788;28;20197;-50
2022/07/24 04:59:50;;;;;;;14.77;13.37;;;20.70;99.90;;;;;;5052599;28;20202;-50
2022/07/24 05:02:17;;;;;;;14.10;13.10;;;20.90;99.90;;;;;;5061982;28;20621;-50
2022/07/24 05:04:44;;;;;;;15.33;14.13;;;21.10;99.90;;;;;;5065235;28;20263;-50
2022/07/24 05:07:12;;;;;;;15.50;14.23;;;21.50;99.90;;;;;;5059424;28;20259;-50
2022/07/24 05:09:39;;;;;;;14.63;13.33;;;21.90;99.90;;;;;;5054987;28;20230;-50
2022/07/24 05:12:06;;;;;;;14.30;13.30;;;22.50;99.90;;;;;;5054966;28;20250;-50
2022/07/24 05:14:33;;;;;;;12.87;11.97;;;23.00;99.90;;;;;;5056435;28;20221;-50
2022/07/24 05:17:00;;;;;;;13.80;12.57;;;23.50;99.90;;;;;;5058062;28;20198;-50
2022/07/24 05:19:27;;;;;;;12.23;11.33;;;24.10;99.90;;;;;;5067147;28;20401;-50
2022/07/24 05:21:54;;;;;;;12.93;11.97;;;24.60;99.90;;;;;;5055808;28;21025;-50
2022/07/24 05:24:24;;;;;;;12.93;11.67;;;25.10;99.90;;;;;;5065952;28;20213;-50
2022/07/24 05:26:52;;;;;;;13.43;12.27;;;25.50;99.90;;;;;;5072715;28;20582;-50
2022/07/24 05:29:19;;;;;;;12.20;11.33;;;25.70;99.90;;;;;;5065495;28;20193;-50
2022/07/24 05:31:46;;;;;;;12.13;11.27;;;26.10;99.90;;;;;;5052291;28;20611;-50
2022/07/24 05:34:13;;;;;;;11.93;11.00;;;26.50;99.90;;;;;;5055943;28;20217;-51
2022/07/24 05:36:40;;;;;;;11.70;11.00;;;26.80;99.90;;;;;;5053037;28;20202;-50
2022/07/24 05:39:07;;;;;;;12.38;11.30;;;27.20;99.90;;;;;;5062463;28;20197;-50
2022/07/24 05:41:36;;;;;;;12.77;11.88;;;27.60;99.90;;;;;;5054398;28;20210;-51
2022/07/24 05:44:03;;;;;;;11.27;10.65;;;27.70;99.90;;;;;;5054150;28;20226;-50
2022/07/24 05:46:30;;;;;;;11.48;10.77;;;27.60;99.90;;;;;;5053498;28;20201;-50
2022/07/24 05:48:57;;;;;;;10.60;9.73;;;27.80;99.90;;;;;;5054958;28;20205;-51
2022/07/24 05:51:25;;;;;;;13.50;12.27;;;27.90;99.90;;;;;;5069950;28;20198;-50
2022/07/24 05:53:52;;;;;;;11.05;10.35;;;28.00;99.90;;;;;;5059085;28;20267;-51
2022/07/24 05:56:19;;;;;;;10.50;9.93;;;28.20;99.90;;;;;;5060372;28;20206;-50
2022/07/24 05:58:48;;;;;;;11.57;10.73;;;28.50;99.90;;;;;;5051732;28;20630;-50
2022/07/24 06:01:15;;;;;;;12.27;10.57;;;29.00;99.90;;;;;;5051119;28;20225;-50
2022/07/24 06:03:42;;;;;;;10.85;10.15;;;29.20;99.90;;;;;;5051785;28;20218;-51
2022/07/24 06:06:09;;;;;;;11.25;10.38;;;29.30;99.90;;;;;;5062997;28;20259;-51
2022/07/24 06:08:36;;;;;;;11.90;11.10;;;29.80;99.90;;;;;;5061109;28;20209;-51
2022/07/24 06:11:03;;;;;;;11.85;10.73;;;29.80;99.90;;;;;;5056519;28;20197;-51
2022/07/24 06:13:30;;;;;;;11.10;10.27;;;29.90;99.90;;;;;;5057982;28;20242;-51
2022/07/24 06:15:59;;;;;;;11.20;10.50;;;30.30;99.90;;;;;;5051973;28;20206;-51
2022/07/24 06:18:31;;;;;;;11.10;10.30;;;30.80;99.90;;;;;;5051961;28;20256;-53
2022/07/24 06:20:58;;;;;;;10.45;9.75;;;30.60;99.90;;;;;;5062006;28;20216;-52
2022/07/24 06:23:29;;;;;;;11.27;10.32;;;30.90;99.90;;;;;;5058414;28;20217;-53
2022/07/24 06:25:56;;;;;;;11.05;10.50;;;31.10;99.90;;;;;;5055266;28;20683;-53
2022/07/24 06:28:26;;;;;;;10.98;10.30;;;30.80;99.90;;;;;;5052532;28;20198;-53
2022/07/24 06:30:53;;;;;;;12.05;11.23;;;30.90;99.90;;;;;;5065398;28;20197;-53
2022/07/24 06:33:26;;;;;;;12.00;11.10;;;30.90;99.90;;;;;;5060553;28;20227;-53
2022/07/24 06:35:53;;;;;;;10.52;9.82;;;30.90;99.90;;;;;;5067711;28;20221;-53
2022/07/24 06:38:20;;;;;;;10.30;9.60;;;31.50;99.90;;;;;;5071806;28;20272;-53
2022/07/24 06:40:48;;;;;;;10.88;9.98;;;31.50;99.90;;;;;;5056784;28;20209;-53
2022/07/24 06:43:15;;;;;;;11.27;10.50;;;31.90;99.90;;;;;;5053885;28;20220;-53
2022/07/24 06:45:43;;;;;;;10.02;9.50;;;32.20;99.90;;;;;;5050268;28;20726;-53
2022/07/24 06:48:10;;;;;;;11.27;10.50;;;32.00;99.90;;;;;;5055042;28;20945;-53
2022/07/24 06:50:39;;;;;;;11.13;10.30;;;31.70;99.90;;;;;;5053737;28;20612;-53
2022/07/24 06:53:40;;;;;;;10.18;9.57;;;31.70;99.90;;;;;;5067007;28;20224;-53
2022/07/24 06:56:14;;;;;;;12.25;10.77;;;31.80;99.90;;;;;;5063777;28;20193;-53
2022/07/24 06:59:14;;;;;;;10.10;9.48;;;32.20;99.90;;;;;;5060387;28;20208;-54
2022/07/24 07:01:41;;;;;;;10.55;9.88;;;32.40;99.90;;;;;;5052752;28;20233;-53
2022/07/24 07:04:09;;;;;;;11.30;10.60;;;32.40;99.90;;;;;;5056934;28;20213;-55
2022/07/24 07:06:38;;;;;;;10.50;9.93;;;32.70;99.90;;;;;;5053157;28;20197;-53
2022/07/24 07:09:05;;;;;;;11.32;10.68;;;32.70;99.90;;;;;;5050207;28;20663;-53
2022/07/24 07:11:36;;;;;;;11.27;10.57;;;32.80;99.90;;;;;;5059831;28;20432;-53
2022/07/24 07:14:04;;;;;;;11.02;10.32;;;32.40;99.90;;;;;;5053291;28;20230;-52
2022/07/24 07:16:32;;;;;;;11.95;11.15;;;32.70;99.90;;;;;;5065466;28;20213;-52
2022/07/24 07:19:00;;;;;;;10.20;9.32;;;32.80;99.90;;;;;;5065469;28;20200;-53
2022/07/24 07:21:27;;;;;;;11.10;10.32;;;33.10;99.90;;;;;;5051912;28;20220;-53
2022/07/24 07:23:55;;;;;;;10.60;10.10;;;33.50;99.90;;;;;;5061060;28;20224;-53
2022/07/24 07:26:39;;;;;;;10.55;9.95;;;33.80;99.90;;;;;;5051885;28;20190;-52
2022/07/24 07:29:07;;;;;;;10.80;10.10;;;33.30;99.90;;;;;;5048156;28;20286;-53
2022/07/24 07:31:34;;;;;;;11.23;10.43;;;32.80;99.90;;;;;;5069937;28;20201;-53
2022/07/24 07:34:01;;;;;;;11.50;10.70;;;33.10;99.90;;;;;;5049955;28;20311;-52
2022/07/24 07:36:28;;;;;;;10.73;10.02;;;33.30;99.90;;;;;;5060171;28;20598;-53
2022/07/24 07:38:57;;;;;;;12.00;11.20;;;33.60;99.90;;;;;;5068734;28;20205;-53
2022/07/24 07:41:24;;;;;;;11.63;10.88;;;33.90;99.90;;;;;;5070379;28;20197;-53
2022/07/24 07:43:51;;;;;;;11.32;10.63;;;33.90;99.90;;;;;;5066137;28;20632;-53
2022/07/24 07:46:19;;;;;;;11.80;11.00;;;33.70;99.90;;;;;;5066211;28;20250;-53
2022/07/24 07:48:46;;;;;;;13.02;12.20;;;33.30;99.90;;;;;;5063983;28;20208;-53
2022/07/24 07:51:14;;;;;;;12.10;11.35;;;33.40;99.90;;;;;;5068886;28;20197;-53
2022/07/24 07:53:41;;;;;;;11.48;10.30;;;33.70;99.90;;;;;;5069076;28;20228;-53
2022/07/24 07:56:10;;;;;;;12.77;11.98;;;33.70;99.90;;;;;;5072906;28;20252;-53
2022/07/24 07:58:37;;;;;;;12.45;11.65;;;33.90;99.90;;;;;;5070852;28;20208;-53
2022/07/24 08:01:04;;;;;;;11.95;11.23;;;33.70;99.90;;;;;;5074608;28;20204;-53
2022/07/24 08:03:31;;;;;;;11.90;11.13;;;33.80;99.90;;;;;;5074576;28;20263;-53
2022/07/24 08:05:58;;;;;;;12.35;11.55;;;34.00;99.90;;;;;;5069700;28;20198;-52
2022/07/24 08:08:30;;;;;;;12.40;11.55;;;34.60;99.90;;;;;;5069199;28;20229;-53
2022/07/24 08:10:58;;;;;;;11.77;10.93;;;33.80;99.90;;;;;;5064719;28;20734;-53
2022/07/24 08:13:35;;;;;;;12.85;11.95;;;33.20;99.90;;;;;;5065163;28;20253;-53
2022/07/24 08:16:02;;;;;;;12.48;11.77;;;33.50;99.90;;;;;;5066241;28;20227;-53
2022/07/24 08:18:33;;;;;;;11.57;10.77;;;34.00;99.90;;;;;;5053492;28;20208;-53
2022/07/24 08:21:00;;;;;;;11.38;10.80;;;34.30;99.90;;;;;;5053204;28;20664;-52
2022/07/24 08:23:32;;;;;;;12.00;11.18;;;33.60;99.90;;;;;;5059634;28;20213;-53
2022/07/24 08:25:59;;;;;;;12.18;11.45;;;33.80;99.90;;;;;;5071722;28;20609;-53
2022/07/24 08:28:31;;;;;;;12.57;11.65;;;33.70;99.90;;;;;;5064875;28;20294;-53
2022/07/24 08:30:58;;;;;;;12.35;11.55;;;33.20;99.90;;;;;;5068443;28;20223;-53
2022/07/24 08:33:25;;;;;;;12.18;11.48;;;33.60;99.90;;;;;;5060109;28;20710;-53
2022/07/24 08:35:52;;;;;;;11.65;10.85;;;33.80;99.90;;;;;;5076823;22;20221;-54
2022/07/24 08:38:19;;;;;;;12.63;11.80;;;33.80;99.90;;;;;;5043684;28;20205;-54
2022/07/24 08:40:47;;;;;;;12.02;11.32;;;34.00;99.90;;;;;;5036336;28;20547;-54
2022/07/24 08:43:14;;;;;;;12.40;11.45;;;34.30;99.90;;;;;;5036669;28;20223;-56
2022/07/24 08:45:44;;;;;;;13.15;12.23;;;34.70;99.90;;;;;;5037919;28;20198;-56
2022/07/24 08:48:12;;;;;;;12.43;11.63;;;34.40;99.90;;;;;;5039672;28;20197;-54
2022/07/24 08:50:41;;;;;;;12.40;11.65;;;34.40;99.90;;;;;;5048658;28;20202;-53
2022/07/24 08:53:10;;;;;;;10.90;10.30;;;34.70;99.90;;;;;;5048958;28;20201;-54
2022/07/24 08:55:37;;;;;;;11.25;10.65;;;35.50;99.70;;;;;;5051831;28;20312;-54
2022/07/24 08:58:04;;;;;;;12.10;11.40;;;35.40;99.90;;;;;;5048874;28;20209;-54
2022/07/24 09:00:33;;;;;;;12.50;11.80;;;35.20;99.00;;;;;;5045121;28;20371;-53
2022/07/24 09:03:01;;;;;;;12.45;11.65;;;35.20;99.90;;;;;;5043799;28;20273;-55
2022/07/24 09:05:29;;;;;;;12.50;11.38;;;35.00;99.90;;;;;;5046214;28;20290;-55
2022/07/24 09:08:08;;;;;;;12.65;11.95;;;34.90;99.90;;;;;;5045486;28;20274;-55
2022/07/24 09:10:35;;;;;;;11.80;11.02;;;34.60;99.90;;;;;;5050479;28;20291;-54
2022/07/24 09:13:14;;;;;;;11.50;10.75;;;34.90;99.90;;;;;;5047240;28;20244;-55
2022/07/24 09:19:07;;;;;;;11.40;10.70;;;35.20;99.90;;;;;;5039128;28;20261;-55
2022/07/24 09:21:35;;;;;;;12.07;11.27;;;35.20;99.70;;;;;;5050477;28;20206;-53
2022/07/24 09:24:12;;;;;;;13.00;12.07;;;35.10;99.90;;;;;;5031658;28;20226;-53
2022/07/24 09:26:47;;;;;;;12.95;11.95;;;34.50;99.90;;;;;;5036797;28;20303;-53
2022/07/24 09:29:15;;;;;;;13.07;12.38;;;34.90;99.90;;;;;;5043487;28;20197;-55
2022/07/24 09:31:57;;;;;;;10.75;10.13;;;35.00;99.90;;;;;;5047678;28;20194;-55
2022/07/24 09:34:28;;;;;;;12.88;11.88;;;35.30;99.90;;;;;;5046644;28;20203;-55
2022/07/24 09:37:01;;;;;;;13.55;12.60;;;35.00;99.90;;;;;;5039542;28;20326;-53
2022/07/24 09:39:31;;;;;;;13.63;12.75;;;33.80;99.90;;;;;;5039845;28;20724;-55
2022/07/24 09:42:00;;;;;;;12.60;11.38;;;33.90;99.90;;;;;;5032938;28;20214;-55
2022/07/24 09:44:29;;;;;;;13.85;12.80;;;34.10;99.90;;;;;;5048750;28;20194;-53
2022/07/24 09:46:59;;;;;;;12.23;11.43;;;33.60;99.90;;;;;;5031551;28;20665;-52
2022/07/24 09:49:28;;;;;;;12.68;11.68;;;34.20;99.90;;;;;;5062755;28;20233;-53
2022/07/24 09:52:14;;;;;;;14.57;13.65;;;34.50;99.90;;;;;;5045823;28;20240;-53
2022/07/24 09:54:42;;;;;;;14.07;13.07;;;34.30;99.90;;;;;;5040616;28;20221;-53
2022/07/24 09:57:18;;;;;;;13.43;12.43;;;33.70;99.90;;;;;;5044849;28;20213;-54
2022/07/24 09:59:48;;;;;;;13.95;13.05;;;34.10;99.90;;;;;;5034818;28;20252;-53
2022/07/24 10:02:16;;;;;;;13.90;13.10;;;33.70;99.90;;;;;;5029166;28;20257;-55
2022/07/24 10:04:46;;;;;;;14.73;13.65;;;33.20;99.90;;;;;;5038667;28;20213;-53
2022/07/24 10:07:16;;;;;;;13.90;12.90;;;32.50;99.90;;;;;;5045630;28;20226;-55
2022/07/24 10:09:45;;;;;;;14.07;13.18;;;32.90;99.90;;;;;;5056969;28;20568;-53
2022/07/24 10:12:15;;;;;;;14.02;12.90;;;33.30;99.90;;;;;;5049815;28;20209;-53
2022/07/24 10:14:44;;;;;;;13.57;12.77;;;33.40;99.90;;;;;;5048901;28;20275;-53
2022/07/24 10:17:13;;;;;;;14.88;13.93;;;33.60;99.90;;;;;;5036799;28;20230;-53
2022/07/24 10:19:42;;;;;;;14.52;13.32;;;33.30;99.90;;;;;;5047627;28;20687;-55
2022/07/24 10:22:15;;;;;;;13.38;12.50;;;32.90;99.90;;;;;;5048080;28;20233;-56
2022/07/24 10:24:57;;;;;;;14.10;13.20;;;32.80;99.90;;;;;;5045045;28;20202;-54
2022/07/24 10:27:27;;;;;;;14.00;13.13;;;32.50;99.90;;;;;;5034466;28;20713;-55
2022/07/24 10:29:56;;;;;;;13.48;12.57;;;33.10;99.90;;;;;;5032001;28;20289;-55
2022/07/24 10:32:24;;;;;;;13.48;12.57;;;33.60;99.90;;;;;;5049644;28;20202;-55
2022/07/24 10:35:03;;;;;;;13.73;12.77;;;33.80;99.90;;;;;;5050709;28;20620;-54
2022/07/24 10:37:39;;;;;;;12.85;11.98;;;33.40;99.90;;;;;;5048987;28;20221;-55
2022/07/24 10:40:17;;;;;;;13.88;12.85;;;33.90;99.90;;;;;;5049873;28;20284;-55
2022/07/24 10:43:10;;;;;;;12.55;11.80;;;33.80;99.90;;;;;;5046777;28;20259;-55
2022/07/24 10:45:38;;;;;;;12.57;11.88;;;33.80;99.90;;;;;;5049222;28;20206;-55
2022/07/24 10:48:32;;;;;;;13.60;12.80;;;34.40;99.90;;;;;;5049453;28;20268;-52
2022/07/24 10:51:05;;;;;;;13.95;13.15;;;34.80;99.90;;;;;;5037669;28;20298;-53
2022/07/24 10:53:45;;;;;;;14.63;13.70;;;34.20;99.90;;;;;;5038588;28;20291;-55
2022/07/24 10:56:17;;;;;;;13.60;12.57;;;33.80;99.90;;;;;;5037244;28;20645;-52
2022/07/24 10:58:54;;;;;;;13.60;12.70;;;33.40;99.90;;;;;;5032494;28;20660;-53
2022/07/24 11:01:32;;;;;;;14.20;13.20;;;32.90;99.90;;;;;;5031787;28;20265;-53
2022/07/24 11:04:00;;;;;;;12.73;12.07;;;32.80;99.90;;;;;;5039059;28;20194;-53
2022/07/24 11:06:43;;;;;;;14.32;13.43;;;32.20;99.90;;;;;;5044432;28;20241;-52
2022/07/24 11:09:11;;;;;;;14.18;13.07;;;31.30;99.90;;;;;;5047864;28;20734;-53
2022/07/24 11:11:43;;;;;;;14.32;13.18;;;30.90;99.90;;;;;;5033781;28;20203;-53
2022/07/24 11:14:11;;;;;;;14.18;13.38;;;30.70;99.90;;;;;;5043751;28;20225;-54
2022/07/24 11:16:39;;;;;;;13.50;12.25;;;30.80;99.90;;;;;;5048398;28;20218;-54
2022/07/24 11:19:29;;;;;;;14.40;13.45;;;30.90;99.90;;;;;;5040688;28;20659;-53
2022/07/24 11:22:08;;;;;;;13.52;12.57;;;30.80;99.90;;;;;;5044421;28;20210;-52
2022/07/24 11:24:40;;;;;;;12.02;11.27;;;30.60;99.90;;;;;;5050261;28;20225;-53
2022/07/24 11:27:14;;;;;;;13.52;12.63;;;30.50;99.90;;;;;;5046010;28;20213;-53
2022/07/24 11:29:41;;;;;;;13.82;12.82;;;30.30;99.90;;;;;;5050112;28;20197;-53
2022/07/24 11:32:10;;;;;;;12.88;11.88;;;30.10;99.90;;;;;;5054516;28;20623;-53
2022/07/24 11:34:38;;;;;;;12.45;11.50;;;30.10;99.90;;;;;;5061871;28;20205;-53
2022/07/24 11:37:06;;;;;;;13.18;12.20;;;30.20;99.90;;;;;;5052107;28;20279;-53
2022/07/24 11:39:37;;;;;;;12.45;11.75;;;30.40;99.90;;;;;;5053625;28;20293;-53
2022/07/24 11:42:07;;;;;;;12.05;11.25;;;30.50;99.90;;;;;;5053368;28;20827;-53
2022/07/24 11:44:36;;;;;;;12.85;12.05;;;30.50;99.90;;;;;;5053099;28;20202;-53
2022/07/24 11:47:08;;;;;;;12.73;11.73;;;30.50;99.90;;;;;;5052857;28;20222;-53
2022/07/24 11:49:44;;;;;;;12.18;11.38;;;30.30;99.90;;;;;;5048200;28;20235;-53
2022/07/24 11:52:18;;;;;;;12.05;11.35;;;30.00;99.90;;;;;;5044815;28;20229;-53
2022/07/24 11:54:47;;;;;;;12.32;11.63;;;30.10;99.90;;;;;;5053742;28;20260;-53
2022/07/24 11:57:19;;;;;;;12.10;11.30;;;30.00;99.90;;;;;;5052694;28;20692;-53
2022/07/24 11:59:48;;;;;;;12.10;11.20;;;29.90;99.90;;;;;;5051353;28;20216;-52
2022/07/24 12:02:15;;;;;;;11.40;10.80;;;29.70;99.90;;;;;;5043413;28;20224;-53
2022/07/24 12:04:43;;;;;;;12.50;11.70;;;29.80;99.90;;;;;;5053438;28;20205;-53
2022/07/24 12:07:12;;;;;;;12.90;11.77;;;29.80;99.90;;;;;;5050426;28;20644;-53
2022/07/24 12:09:49;;;;;;;11.65;10.88;;;29.90;99.90;;;;;;5052514;28;20206;-53
2022/07/24 12:12:25;;;;;;;10.75;9.95;;;30.00;99.90;;;;;;5052691;28;20228;-53
2022/07/24 12:21:36;;;;;;;12.82;11.90;;;29.90;99.90;;;;;;5052361;28;20235;-53
2022/07/24 12:24:03;;;;;;;12.35;11.38;;;30.00;99.90;;;;;;5053137;28;20202;-53
2022/07/24 12:26:31;;;;;;;13.70;12.68;;;29.90;99.90;;;;;;5048929;28;20263;-53
2022/07/24 12:29:09;;;;;;;12.90;11.93;;;29.80;99.90;;;;;;5048907;28;20275;-53
2022/07/24 12:31:36;;;;;;;12.60;11.77;;;29.80;99.90;;;;;;5051381;28;20209;-53
2022/07/24 12:34:03;;;;;;;12.13;11.40;;;29.60;99.90;;;;;;5051565;28;20210;-53
2022/07/24 12:36:31;;;;;;;11.45;10.85;;;29.70;99.90;;;;;;5051231;28;20301;-53
2022/07/24 12:38:58;;;;;;;13.25;12.38;;;29.60;99.90;;;;;;5049443;28;20253;-53
2022/07/24 12:41:26;;;;;;;11.90;11.20;;;29.80;99.90;;;;;;5051903;28;20235;-55
2022/07/24 12:43:57;;;;;;;12.82;11.95;;;29.90;99.90;;;;;;5052939;28;20245;-53
2022/07/24 12:46:30;;;;;;;12.93;12.13;;;29.90;99.90;;;;;;5053075;28;20261;-52
2022/07/24 12:48:59;;;;;;;13.13;12.13;;;29.90;99.90;;;;;;5051315;28;20255;-52
2022/07/24 12:51:26;;;;;;;12.80;12.02;;;29.80;99.90;;;;;;5049351;28;20206;-52
2022/07/24 12:53:55;;;;;;;13.43;12.43;;;29.60;99.90;;;;;;5052498;28;20291;-53
2022/07/24 12:56:22;;;;;;;11.82;11.23;;;29.60;99.90;;;;;;5052515;28;20317;-55
2022/07/24 12:58:57;;;;;;;12.68;11.77;;;29.80;99.90;;;;;;5042382;28;20233;-55
2022/07/24 13:01:26;;;;;;;13.48;12.48;;;29.80;99.90;;;;;;5048067;28;20220;-55
2022/07/24 13:03:56;;;;;;;12.73;11.88;;;29.90;99.90;;;;;;5041443;28;20575;-53
2022/07/24 13:06:36;;;;;;;11.38;10.77;;;29.70;99.90;;;;;;5046719;28;20220;-53
2022/07/24 13:09:05;;;;;;;12.55;11.75;;;29.80;99.90;;;;;;5043731;28;20334;-55
2022/07/24 13:11:32;;;;;;;12.77;11.98;;;29.90;99.90;;;;;;5049659;28;20205;-55
2022/07/24 13:14:00;;;;;;;12.70;11.73;;;29.90;99.90;;;;;;5050823;28;20197;-53
2022/07/24 13:16:30;;;;;;;12.60;11.82;;;30.00;99.90;;;;;;5050588;28;20213;-53
2022/07/24 13:18:57;;;;;;;12.52;11.70;;;30.00;99.90;;;;;;5041523;28;20221;-53